Time;durP1;ratioP1;P1;durP2;ratioP2;P2;SDS_P1;SDS_P2;PMS_P1;PMS_P2;Temp;Humidity;BMP_temperature;BMP_pressure;BME280_temperature;BME280_humidity;BME280_pressure;Samples;Min_cycle;Max_cycle;Signal;HPM_P1;HPM_P2
2021/11/29 00:01:44;;;;;;;24.70;16.17;;;3.40;99.90;;;;;;4919477;29;21045;-62
2021/11/29 00:04:13;;;;;;;30.40;17.73;;;3.40;99.90;;;;;;4907219;29;20483;-63
2021/11/29 00:06:42;;;;;;;31.70;18.37;;;3.40;99.90;;;;;;4911955;29;20831;-63
2021/11/29 00:09:10;;;;;;;32.13;19.33;;;3.40;99.90;;;;;;4922335;29;20491;-62
2021/11/29 00:11:38;;;;;;;34.27;19.13;;;3.30;99.90;;;;;;4913706;29;20484;-62
2021/11/29 00:14:08;;;;;;;33.97;19.37;;;3.30;99.90;;;;;;4915224;29;20583;-62
2021/11/29 00:16:36;;;;;;;34.73;18.27;;;3.30;99.90;;;;;;4922374;29;20504;-62
2021/11/29 00:19:05;;;;;;;31.30;18.17;;;3.30;99.90;;;;;;4910726;29;20486;-63
2021/11/29 00:21:34;;;;;;;30.73;17.07;;;3.20;99.90;;;;;;4923871;29;21025;-63
2021/11/29 00:24:02;;;;;;;31.03;16.83;;;3.30;99.90;;;;;;4924280;29;20826;-62
2021/11/29 00:26:30;;;;;;;29.97;15.70;;;3.30;99.90;;;;;;4918635;29;21047;-61
2021/11/29 00:28:58;;;;;;;33.97;18.33;;;3.40;99.90;;;;;;4915031;29;20481;-63
2021/11/29 00:31:28;;;;;;;35.17;18.93;;;3.40;99.90;;;;;;4922270;29;20568;-63
2021/11/29 00:33:56;;;;;;;34.37;18.43;;;3.30;99.90;;;;;;4916672;29;20480;-62
2021/11/29 00:36:24;;;;;;;36.87;19.30;;;3.20;99.90;;;;;;4920026;29;20490;-62
2021/11/29 00:38:52;;;;;;;31.27;17.00;;;3.20;99.90;;;;;;4918189;29;20548;-63
2021/11/29 00:41:20;;;;;;;30.73;16.73;;;3.10;99.90;;;;;;4920784;29;21086;-62
2021/11/29 00:43:48;;;;;;;34.27;16.23;;;3.10;99.90;;;;;;4900640;29;20637;-62
2021/11/29 00:46:17;;;;;;;28.97;15.73;;;3.00;99.90;;;;;;4923294;29;20480;-62
2021/11/29 00:48:46;;;;;;;26.00;14.20;;;3.00;99.90;;;;;;4916694;29;20596;-62
2021/11/29 00:51:14;;;;;;;24.83;14.63;;;3.10;99.90;;;;;;4916247;29;20561;-62
2021/11/29 00:53:43;;;;;;;21.80;12.37;;;3.00;99.90;;;;;;4910925;29;20813;-63
2021/11/29 00:56:11;;;;;;;19.70;12.60;;;3.00;99.90;;;;;;4923518;29;21069;-62
2021/11/29 00:58:39;;;;;;;19.83;12.00;;;2.90;99.90;;;;;;4922159;29;20471;-62
2021/11/29 01:01:07;;;;;;;21.33;11.97;;;3.00;99.90;;;;;;4917118;29;20567;-61
2021/11/29 01:03:38;;;;;;;19.13;11.63;;;3.00;99.90;;;;;;4925797;29;20475;-62
2021/11/29 01:06:08;;;;;;;17.67;10.90;;;3.00;99.90;;;;;;4926881;29;20483;-62
2021/11/29 01:08:38;;;;;;;17.03;11.07;;;2.90;99.90;;;;;;4921024;29;20518;-63
2021/11/29 01:11:06;;;;;;;18.33;11.93;;;3.00;99.90;;;;;;4919265;29;20897;-62
2021/11/29 01:13:36;;;;;;;15.90;10.77;;;3.00;99.90;;;;;;4913490;29;20560;-62
2021/11/29 01:16:04;;;;;;;16.00;10.63;;;3.00;99.90;;;;;;4918891;29;20850;-62
2021/11/29 01:18:34;;;;;;;15.87;11.20;;;3.00;99.90;;;;;;4917774;29;20494;-63
2021/11/29 01:21:03;;;;;;;16.77;11.10;;;3.00;99.90;;;;;;4917186;29;20475;-63
2021/11/29 01:23:32;;;;;;;17.23;10.93;;;3.00;99.90;;;;;;4924463;29;21071;-63
2021/11/29 01:26:01;;;;;;;17.07;11.37;;;2.90;99.90;;;;;;4921112;29;20529;-62
2021/11/29 01:28:30;;;;;;;19.27;12.17;;;2.90;99.90;;;;;;4916976;29;20563;-63
2021/11/29 01:30:58;;;;;;;18.70;11.70;;;2.90;99.90;;;;;;4920922;29;20477;-62
2021/11/29 01:33:26;;;;;;;17.60;11.80;;;2.90;99.90;;;;;;4919161;29;20509;-62
2021/11/29 01:35:54;;;;;;;20.20;13.07;;;2.90;99.90;;;;;;4911542;29;20857;-62
2021/11/29 01:38:22;;;;;;;17.40;11.87;;;2.90;99.90;;;;;;4917047;29;21042;-62
2021/11/29 01:40:52;;;;;;;19.77;11.67;;;2.90;99.90;;;;;;4927781;29;20479;-62
2021/11/29 01:43:21;;;;;;;16.97;10.27;;;2.90;99.90;;;;;;4918223;29;20585;-62
2021/11/29 01:45:51;;;;;;;16.80;10.43;;;2.80;99.90;;;;;;4923279;29;20491;-63
2021/11/29 01:48:20;;;;;;;16.63;10.87;;;2.80;99.90;;;;;;4919988;29;20487;-62
2021/11/29 01:50:51;;;;;;;16.13;10.87;;;2.80;99.90;;;;;;4920398;29;20652;-62
2021/11/29 01:53:21;;;;;;;15.07;9.90;;;2.70;99.90;;;;;;4911989;29;20524;-62
2021/11/29 01:55:50;;;;;;;14.43;9.90;;;2.70;99.90;;;;;;4922569;29;20472;-62
2021/11/29 01:58:22;;;;;;;13.87;9.50;;;2.70;99.90;;;;;;4915403;29;20496;-62
2021/11/29 02:00:55;;;;;;;11.47;8.60;;;2.70;99.90;;;;;;4925729;29;20492;-62
2021/11/29 02:03:24;;;;;;;11.27;8.30;;;2.60;99.90;;;;;;4907390;29;20484;-62
2021/11/29 02:05:53;;;;;;;10.80;7.93;;;2.60;99.90;;;;;;4921772;29;20487;-61
2021/11/29 02:08:22;;;;;;;12.63;8.33;;;2.60;99.90;;;;;;4923071;29;20564;-62
2021/11/29 02:10:50;;;;;;;11.03;8.07;;;2.60;99.90;;;;;;4919555;29;20561;-62
2021/11/29 02:13:20;;;;;;;11.63;8.20;;;2.60;99.90;;;;;;4921511;29;20476;-62
2021/11/29 02:15:51;;;;;;;12.77;7.83;;;2.60;99.90;;;;;;4903483;29;20632;-63
2021/11/29 02:18:22;;;;;;;15.67;8.00;;;2.50;99.90;;;;;;4919468;29;20486;-62
2021/11/29 02:21:04;;;;;;;17.07;6.53;;;2.50;99.90;;;;;;4918472;29;20989;-62
2021/11/29 02:23:34;;;;;;;13.03;6.27;;;2.40;99.90;;;;;;4926616;29;20555;-62
2021/11/29 02:26:02;;;;;;;9.80;6.03;;;2.40;99.90;;;;;;4923304;29;20513;-62
2021/11/29 02:28:32;;;;;;;13.60;6.13;;;2.30;99.90;;;;;;4918611;29;20868;-62
2021/11/29 02:31:00;;;;;;;11.17;6.50;;;2.30;99.90;;;;;;4906993;29;20710;-62
2021/11/29 02:33:29;;;;;;;11.00;6.90;;;2.20;99.90;;;;;;4915833;29;20487;-62
2021/11/29 02:35:57;;;;;;;11.77;6.87;;;2.20;99.90;;;;;;4921021;29;20477;-62
2021/11/29 02:38:27;;;;;;;12.43;7.23;;;2.10;99.90;;;;;;4916943;29;20568;-61
2021/11/29 02:40:55;;;;;;;8.13;6.57;;;2.20;99.90;;;;;;4920824;29;20473;-62
2021/11/29 02:43:23;;;;;;;15.57;7.80;;;2.20;99.90;;;;;;4915121;29;21074;-62
2021/11/29 02:45:51;;;;;;;14.70;8.13;;;2.10;99.90;;;;;;4917387;29;20517;-62
2021/11/29 02:48:20;;;;;;;11.90;8.33;;;2.20;99.90;;;;;;4917656;29;20528;-62
2021/11/29 02:50:48;;;;;;;16.23;8.00;;;2.20;99.90;;;;;;4915403;29;20484;-62
2021/11/29 02:53:16;;;;;;;14.10;7.67;;;2.20;99.90;;;;;;4914814;29;20482;-62
2021/11/29 02:55:45;;;;;;;11.93;8.33;;;2.20;99.90;;;;;;4921057;29;20482;-62
2021/11/29 02:58:13;;;;;;;12.30;8.13;;;2.20;99.90;;;;;;4918283;29;20560;-62
2021/11/29 03:00:41;;;;;;;13.77;8.40;;;2.10;99.90;;;;;;4920880;29;20478;-62
2021/11/29 03:03:11;;;;;;;18.20;8.33;;;2.10;99.90;;;;;;4921606;29;20564;-62
2021/11/29 03:05:39;;;;;;;11.93;8.93;;;2.10;99.90;;;;;;4925738;29;20487;-62
2021/11/29 03:08:07;;;;;;;15.87;8.90;;;2.00;99.90;;;;;;4912301;29;20502;-62
2021/11/29 03:10:35;;;;;;;18.40;9.03;;;2.00;99.90;;;;;;4920047;29;20557;-62
2021/11/29 03:13:05;;;;;;;12.87;9.07;;;2.00;99.90;;;;;;4920718;29;20538;-62
2021/11/29 03:15:33;;;;;;;12.97;7.90;;;2.00;99.90;;;;;;4920306;29;20564;-62
2021/11/29 03:18:01;;;;;;;14.40;9.10;;;2.10;99.90;;;;;;4919399;29;20487;-62
2021/11/29 03:20:29;;;;;;;14.57;9.07;;;2.10;99.90;;;;;;4918878;29;20528;-62
2021/11/29 03:22:57;;;;;;;15.67;8.53;;;2.10;99.90;;;;;;4916298;29;20839;-62
2021/11/29 03:25:25;;;;;;;16.37;9.63;;;2.10;99.90;;;;;;4923267;29;20490;-60
2021/11/29 03:27:53;;;;;;;18.67;9.33;;;2.10;99.90;;;;;;4916710;29;20851;-62
2021/11/29 03:30:26;;;;;;;12.60;8.93;;;2.10;99.90;;;;;;4919887;29;20511;-63
2021/11/29 03:32:55;;;;;;;15.93;9.40;;;2.10;99.90;;;;;;4922455;29;20487;-62
2021/11/29 03:35:23;;;;;;;11.93;9.30;;;2.20;99.90;;;;;;4921099;29;21102;-61
2021/11/29 03:37:51;;;;;;;13.03;9.70;;;2.20;99.90;;;;;;4920490;29;20481;-62
2021/11/29 03:40:19;;;;;;;15.03;9.87;;;2.20;99.90;;;;;;4918706;29;20470;-62
2021/11/29 03:42:47;;;;;;;14.27;10.00;;;2.20;99.90;;;;;;4922165;29;20510;-63
2021/11/29 03:45:16;;;;;;;15.03;10.53;;;2.20;99.90;;;;;;4919590;29;20553;-61
2021/11/29 03:47:45;;;;;;;15.33;9.63;;;2.10;99.90;;;;;;4918735;29;20537;-60
2021/11/29 03:50:13;;;;;;;13.97;9.87;;;2.20;99.90;;;;;;4920744;29;20472;-62
2021/11/29 03:52:41;;;;;;;14.33;10.43;;;2.10;99.90;;;;;;4915115;29;20468;-62
2021/11/29 03:55:10;;;;;;;19.40;10.90;;;2.20;99.90;;;;;;4924420;29;20482;-62
2021/11/29 03:57:38;;;;;;;14.57;11.20;;;2.10;99.90;;;;;;4919789;29;20608;-62
2021/11/29 04:00:07;;;;;;;13.43;10.00;;;2.10;99.90;;;;;;4914791;29;20476;-62
2021/11/29 04:02:39;;;;;;;15.90;11.00;;;2.30;99.90;;;;;;4921867;29;20472;-62
2021/11/29 04:05:09;;;;;;;15.80;10.63;;;2.30;99.90;;;;;;4911712;29;21207;-61
2021/11/29 04:07:37;;;;;;;15.87;11.40;;;2.30;99.90;;;;;;4917359;29;20977;-62
2021/11/29 04:10:07;;;;;;;17.20;11.97;;;2.20;99.90;;;;;;4914929;29;20558;-62
2021/11/29 04:12:35;;;;;;;19.50;11.27;;;2.20;99.90;;;;;;4919227;29;20489;-62
2021/11/29 04:15:04;;;;;;;18.03;11.43;;;2.20;99.90;;;;;;4920806;29;21011;-62
2021/11/29 04:17:32;;;;;;;16.83;11.30;;;2.10;99.90;;;;;;4919566;29;20877;-61
2021/11/29 04:20:00;;;;;;;17.77;11.47;;;2.10;99.90;;;;;;4918360;29;20477;-62
2021/11/29 04:22:30;;;;;;;17.53;11.33;;;2.10;99.90;;;;;;4916936;29;20483;-62
2021/11/29 04:25:00;;;;;;;16.50;11.60;;;2.10;99.90;;;;;;4919683;29;20892;-62
2021/11/29 04:27:29;;;;;;;16.70;11.87;;;2.10;99.90;;;;;;4920723;29;20481;-62
2021/11/29 04:30:03;;;;;;;16.90;11.77;;;2.10;99.90;;;;;;4916920;29;20488;-62
2021/11/29 04:32:31;;;;;;;15.70;10.33;;;2.10;99.90;;;;;;4914888;29;21474;-62
2021/11/29 04:35:00;;;;;;;17.23;11.57;;;2.20;99.90;;;;;;4914856;29;20894;-62
2021/11/29 04:37:29;;;;;;;17.00;11.70;;;2.20;99.90;;;;;;4920933;29;20981;-63
2021/11/29 04:39:57;;;;;;;16.87;11.47;;;2.20;99.90;;;;;;4922131;29;21031;-62
2021/11/29 04:42:26;;;;;;;16.00;11.33;;;2.10;99.90;;;;;;4917980;29;20472;-62
2021/11/29 04:44:54;;;;;;;16.37;11.33;;;2.10;99.90;;;;;;4922863;29;20561;-62
2021/11/29 04:47:22;;;;;;;15.93;10.53;;;2.10;99.90;;;;;;4920044;29;20475;-62
2021/11/29 04:49:51;;;;;;;16.77;11.50;;;2.10;99.90;;;;;;4916131;29;20550;-62
2021/11/29 04:52:19;;;;;;;14.23;10.00;;;2.10;99.90;;;;;;4919673;29;21040;-63
2021/11/29 04:54:49;;;;;;;16.27;10.80;;;2.00;99.90;;;;;;4917619;29;20481;-62
2021/11/29 04:57:17;;;;;;;16.53;11.10;;;1.90;99.90;;;;;;4921637;29;20532;-62
2021/11/29 04:59:45;;;;;;;16.13;10.40;;;2.00;99.90;;;;;;4918547;29;20488;-62
2021/11/29 05:02:13;;;;;;;15.70;11.13;;;2.00;99.90;;;;;;4921053;29;20900;-62
2021/11/29 05:04:45;;;;;;;16.20;11.30;;;2.10;99.90;;;;;;4922180;29;20560;-62
2021/11/29 05:07:14;;;;;;;15.43;10.30;;;2.20;99.90;;;;;;4920424;29;20888;-63
2021/11/29 05:09:43;;;;;;;15.67;10.13;;;2.30;99.90;;;;;;4919371;29;20520;-62
2021/11/29 05:12:15;;;;;;;18.00;12.10;;;2.30;99.90;;;;;;4920787;29;20995;-62
2021/11/29 05:14:44;;;;;;;18.07;11.50;;;2.20;99.90;;;;;;4920345;29;20541;-62
2021/11/29 05:17:12;;;;;;;20.90;12.93;;;2.30;99.90;;;;;;4920752;29;20480;-61
2021/11/29 05:19:40;;;;;;;19.50;12.20;;;2.20;99.90;;;;;;4910511;29;20985;-62
2021/11/29 05:22:09;;;;;;;19.67;11.87;;;2.20;99.90;;;;;;4915235;29;20990;-62
2021/11/29 05:24:37;;;;;;;21.00;13.13;;;2.30;99.90;;;;;;4913866;29;20889;-62
2021/11/29 05:27:05;;;;;;;17.67;11.73;;;2.30;99.90;;;;;;4920597;29;20835;-62
2021/11/29 05:29:35;;;;;;;18.47;12.13;;;2.20;99.90;;;;;;4925502;29;21019;-62
2021/11/29 05:32:03;;;;;;;20.33;12.77;;;2.20;99.90;;;;;;4921819;29;20490;-62
2021/11/29 05:34:32;;;;;;;18.93;12.30;;;2.10;99.90;;;;;;4930988;29;20902;-62
2021/11/29 05:37:20;;;;;;;21.93;14.20;;;2.20;99.90;;;;;;4914150;29;20984;-62
2021/11/29 05:39:48;;;;;;;20.57;13.77;;;2.10;99.90;;;;;;4918088;29;20517;-61
2021/11/29 05:42:31;;;;;;;22.80;14.57;;;2.10;99.90;;;;;;4919850;29;20861;-62
2021/11/29 05:45:01;;;;;;;21.33;13.73;;;2.10;99.90;;;;;;4921826;29;20478;-62
2021/11/29 05:47:31;;;;;;;24.77;15.07;;;2.00;99.90;;;;;;4904909;29;20489;-61
2021/11/29 05:49:59;;;;;;;24.37;14.50;;;2.00;99.90;;;;;;4917289;29;20998;-63
2021/11/29 05:52:27;;;;;;;24.47;16.00;;;2.00;99.90;;;;;;4923449;29;20486;-62
2021/11/29 05:54:55;;;;;;;25.00;15.47;;;2.00;99.90;;;;;;4926414;29;20573;-63
2021/11/29 05:57:23;;;;;;;28.17;16.10;;;2.00;99.90;;;;;;4924817;29;20833;-62
2021/11/29 05:59:51;;;;;;;27.00;16.40;;;2.00;99.90;;;;;;4925572;29;20577;-62
2021/11/29 06:02:21;;;;;;;27.80;17.00;;;2.00;99.90;;;;;;4923553;29;20487;-62
2021/11/29 06:04:49;;;;;;;29.37;16.10;;;2.00;99.90;;;;;;4925764;29;20476;-61
2021/11/29 06:07:17;;;;;;;29.43;16.73;;;2.00;99.90;;;;;;4918089;29;20484;-62
2021/11/29 06:09:45;;;;;;;25.83;15.57;;;2.00;99.90;;;;;;4925320;29;20527;-62
2021/11/29 06:12:13;;;;;;;29.80;16.67;;;2.00;99.90;;;;;;4919481;29;20484;-62
2021/11/29 06:14:41;;;;;;;32.67;16.60;;;2.10;99.90;;;;;;4920621;29;21065;-62
2021/11/29 06:17:10;;;;;;;31.20;17.03;;;2.30;99.90;;;;;;4919365;29;20546;-62
2021/11/29 06:19:39;;;;;;;33.00;18.30;;;2.20;99.90;;;;;;4914483;29;20473;-62
2021/11/29 06:22:07;;;;;;;34.90;18.77;;;2.20;99.90;;;;;;4925834;29;20981;-61
2021/11/29 06:24:35;;;;;;;29.83;17.87;;;2.10;99.90;;;;;;4925986;29;20468;-62
2021/11/29 06:27:04;;;;;;;33.23;18.77;;;2.20;99.90;;;;;;4925776;29;20476;-62
2021/11/29 06:29:32;;;;;;;32.40;18.43;;;2.10;99.90;;;;;;4925188;29;21016;-62
2021/11/29 06:32:00;;;;;;;35.43;19.50;;;2.10;99.90;;;;;;4922265;29;20966;-62
2021/11/29 06:34:29;;;;;;;33.23;18.73;;;2.10;99.90;;;;;;4919256;29;20484;-62
2021/11/29 06:37:00;;;;;;;34.10;19.17;;;2.10;99.90;;;;;;4917262;29;20573;-62
2021/11/29 06:39:29;;;;;;;32.67;17.90;;;2.10;99.90;;;;;;4911878;29;20920;-62
2021/11/29 06:41:59;;;;;;;33.53;19.20;;;2.20;99.90;;;;;;4924237;29;20484;-62
2021/11/29 06:44:27;;;;;;;35.90;19.73;;;2.10;99.90;;;;;;4914942;29;20842;-63
2021/11/29 06:46:55;;;;;;;36.17;19.80;;;2.10;99.90;;;;;;4923060;29;21013;-62
2021/11/29 06:49:23;;;;;;;40.87;19.80;;;2.00;99.90;;;;;;4921046;29;20815;-62
2021/11/29 06:51:51;;;;;;;37.53;20.33;;;2.10;99.90;;;;;;4920036;29;20487;-62
2021/11/29 06:54:22;;;;;;;37.90;20.97;;;2.10;99.90;;;;;;4919232;29;20482;-62
2021/11/29 06:56:50;;;;;;;37.23;19.77;;;2.10;99.90;;;;;;4922653;29;20568;-62
2021/11/29 06:59:18;;;;;;;38.60;19.53;;;2.00;99.90;;;;;;4916426;29;20478;-60
2021/11/29 07:01:47;;;;;;;32.73;18.50;;;2.10;99.90;;;;;;4917107;29;20852;-62
2021/11/29 07:04:19;;;;;;;34.83;19.10;;;2.10;99.90;;;;;;4915470;29;20503;-62
2021/11/29 07:06:47;;;;;;;35.93;19.53;;;2.10;99.90;;;;;;4920254;29;21005;-62
2021/11/29 07:09:16;;;;;;;37.17;19.53;;;2.10;99.90;;;;;;4924646;29;21041;-62
2021/11/29 07:11:46;;;;;;;34.53;19.17;;;2.10;99.90;;;;;;4921435;29;20985;-62
2021/11/29 07:14:14;;;;;;;38.17;20.60;;;2.10;99.90;;;;;;4920113;29;20509;-62
2021/11/29 07:16:47;;;;;;;36.33;19.40;;;2.10;99.90;;;;;;4923513;29;20515;-63
2021/11/29 07:19:16;;;;;;;37.10;19.93;;;2.10;99.90;;;;;;4904761;29;20886;-62
2021/11/29 07:21:45;;;;;;;34.90;19.17;;;2.20;99.90;;;;;;4914252;29;20596;-62
2021/11/29 07:24:13;;;;;;;35.17;19.27;;;2.20;99.90;;;;;;4921679;29;20555;-62
2021/11/29 07:26:44;;;;;;;38.70;20.37;;;2.30;99.90;;;;;;4928382;29;20552;-62
2021/11/29 07:29:14;;;;;;;34.93;19.37;;;2.20;99.90;;;;;;4923285;29;20684;-61
2021/11/29 07:31:43;;;;;;;33.17;20.00;;;2.20;99.90;;;;;;4919029;29;20481;-62
2021/11/29 07:34:11;;;;;;;32.70;19.23;;;2.20;99.90;;;;;;4926597;29;20560;-62
2021/11/29 07:36:39;;;;;;;33.93;19.67;;;2.20;99.90;;;;;;4918862;29;20484;-62
2021/11/29 07:39:10;;;;;;;35.37;19.43;;;2.20;99.90;;;;;;4917353;29;20592;-62
2021/11/29 07:41:38;;;;;;;34.77;19.53;;;2.20;99.90;;;;;;4920689;29;20489;-62
2021/11/29 07:44:06;;;;;;;38.37;20.07;;;2.20;99.90;;;;;;4925000;29;20483;-62
2021/11/29 07:46:36;;;;;;;30.93;18.13;;;2.30;99.90;;;;;;4915629;29;20479;-63
2021/11/29 07:49:05;;;;;;;31.97;18.50;;;2.30;99.90;;;;;;4920176;29;20483;-62
2021/11/29 07:51:33;;;;;;;31.83;18.50;;;2.40;99.90;;;;;;4920573;29;20911;-62
2021/11/29 07:54:01;;;;;;;33.03;18.90;;;2.40;99.90;;;;;;4920126;29;21041;-62
2021/11/29 07:56:30;;;;;;;33.00;18.73;;;2.40;99.90;;;;;;4914864;29;20485;-62
2021/11/29 07:58:58;;;;;;;32.70;18.63;;;2.40;99.90;;;;;;4923188;29;20544;-62
2021/11/29 08:01:30;;;;;;;32.00;18.60;;;2.40;99.90;;;;;;4925267;29;20493;-62
2021/11/29 08:04:00;;;;;;;32.27;18.77;;;2.40;99.90;;;;;;4923200;29;20487;-62
2021/11/29 08:06:28;;;;;;;29.03;17.83;;;2.40;99.90;;;;;;4917877;29;20535;-62
2021/11/29 08:08:56;;;;;;;31.67;17.67;;;2.50;99.90;;;;;;4918331;29;20451;-62
2021/11/29 08:11:24;;;;;;;32.27;18.10;;;2.50;99.90;;;;;;4915946;29;20460;-62
2021/11/29 08:13:52;;;;;;;32.00;18.67;;;2.50;99.90;;;;;;4907739;29;20850;-62
2021/11/29 08:16:21;;;;;;;31.67;18.37;;;2.50;99.90;;;;;;4910719;29;20553;-62
2021/11/29 08:18:49;;;;;;;32.30;18.67;;;2.60;99.90;;;;;;4917226;29;20589;-61
2021/11/29 08:21:39;;;;;;;32.67;18.60;;;2.60;99.90;;;;;;4920111;29;20595;-62
2021/11/29 08:24:07;;;;;;;32.97;18.87;;;2.60;99.90;;;;;;4916291;29;20457;-62
2021/11/29 08:26:39;;;;;;;30.40;17.73;;;2.60;99.90;;;;;;4910520;29;20476;-62
2021/11/29 08:29:07;;;;;;;29.47;17.97;;;2.60;99.90;;;;;;4922927;29;20476;-62
2021/11/29 08:31:35;;;;;;;30.47;18.33;;;2.70;99.90;;;;;;4919884;29;20569;-62
2021/11/29 08:34:04;;;;;;;31.03;17.57;;;2.70;99.90;;;;;;4913667;29;20541;-62
2021/11/29 08:36:34;;;;;;;31.20;18.23;;;2.70;99.90;;;;;;4918413;29;20493;-62
2021/11/29 08:39:05;;;;;;;31.07;17.83;;;2.80;99.90;;;;;;4911386;29;20573;-62
2021/11/29 08:41:34;;;;;;;29.87;17.93;;;2.80;99.90;;;;;;4917602;29;20578;-62
2021/11/29 08:44:03;;;;;;;29.13;17.70;;;2.80;99.90;;;;;;4923281;29;20993;-62
2021/11/29 08:46:31;;;;;;;34.33;19.67;;;2.80;99.90;;;;;;4921082;29;20505;-62
2021/11/29 08:49:01;;;;;;;35.80;19.60;;;2.80;99.90;;;;;;4924032;29;20474;-62
2021/11/29 08:51:29;;;;;;;34.13;19.20;;;2.80;99.90;;;;;;4915553;29;20525;-62
2021/11/29 08:53:57;;;;;;;32.53;18.87;;;2.80;99.90;;;;;;4914846;29;20477;-62
2021/11/29 08:56:27;;;;;;;34.83;19.10;;;2.80;99.90;;;;;;4923280;29;21082;-62
2021/11/29 08:58:55;;;;;;;32.63;18.53;;;2.90;99.90;;;;;;4916563;29;20731;-62
2021/11/29 09:01:23;;;;;;;33.77;19.40;;;2.90;99.90;;;;;;4914276;29;20738;-62
2021/11/29 09:03:51;;;;;;;33.20;19.20;;;2.90;99.90;;;;;;4916198;29;20478;-62
2021/11/29 09:06:20;;;;;;;31.57;18.13;;;2.90;99.90;;;;;;4922113;29;20997;-62
2021/11/29 09:08:48;;;;;;;30.20;18.10;;;2.90;99.90;;;;;;4917682;29;20505;-63
2021/11/29 09:11:16;;;;;;;32.73;19.70;;;2.90;99.90;;;;;;4925143;29;21092;-62
2021/11/29 09:13:46;;;;;;;31.17;19.07;;;2.90;99.90;;;;;;4917849;29;20568;-62
2021/11/29 09:16:17;;;;;;;28.63;18.47;;;2.90;99.90;;;;;;4922284;29;20507;-62
2021/11/29 09:18:46;;;;;;;30.20;18.93;;;3.00;99.90;;;;;;4928180;29;20557;-63
2021/11/29 09:21:16;;;;;;;29.43;18.57;;;3.00;99.90;;;;;;4924894;29;20485;-62
2021/11/29 09:23:45;;;;;;;30.97;19.50;;;3.00;99.90;;;;;;4927118;29;20559;-62
2021/11/29 09:26:14;;;;;;;29.80;18.70;;;3.00;99.90;;;;;;4921262;29;20479;-61
2021/11/29 09:28:42;;;;;;;31.13;19.33;;;3.10;99.90;;;;;;4921917;29;20560;-62
2021/11/29 09:31:13;;;;;;;30.03;19.23;;;3.10;99.90;;;;;;4913694;29;20486;-63
2021/11/29 09:33:42;;;;;;;30.70;19.90;;;3.20;99.90;;;;;;4922353;29;20479;-61
2021/11/29 09:36:10;;;;;;;33.83;20.00;;;3.20;99.90;;;;;;4924896;29;20538;-62
2021/11/29 09:38:38;;;;;;;29.27;19.53;;;3.20;99.90;;;;;;4925514;29;20501;-62
2021/11/29 09:41:07;;;;;;;30.23;18.70;;;3.20;99.90;;;;;;4925516;29;20489;-63
2021/11/29 09:43:37;;;;;;;27.80;19.50;;;3.20;99.90;;;;;;4930020;29;20484;-63
2021/11/29 09:46:06;;;;;;;26.83;18.13;;;3.20;99.90;;;;;;4923982;29;20477;-62
2021/11/29 09:48:36;;;;;;;27.87;18.77;;;3.20;99.90;;;;;;4918296;29;20491;-63
2021/11/29 09:51:25;;;;;;;27.67;18.23;;;3.20;99.90;;;;;;4924497;29;20803;-62
2021/11/29 09:53:53;;;;;;;26.50;17.60;;;3.20;99.90;;;;;;4908921;29;20500;-62
2021/11/29 09:56:21;;;;;;;25.90;17.67;;;3.20;99.90;;;;;;4914160;29;20500;-63
2021/11/29 09:58:53;;;;;;;25.23;17.70;;;3.20;99.90;;;;;;4922627;29;20476;-63
2021/11/29 10:01:22;;;;;;;23.20;16.40;;;3.20;99.90;;;;;;4917554;29;20488;-63
2021/11/29 10:04:08;;;;;;;23.67;16.50;;;3.20;99.90;;;;;;4923683;29;20478;-62
2021/11/29 10:06:42;;;;;;;24.80;16.77;;;3.20;99.90;;;;;;4916374;29;20480;-62
2021/11/29 10:09:30;;;;;;;22.40;15.77;;;3.30;99.90;;;;;;4926000;29;20987;-62
2021/11/29 10:12:27;;;;;;;23.23;15.43;;;3.30;99.90;;;;;;4912467;29;20494;-62
2021/11/29 10:15:18;;;;;;;21.50;15.20;;;3.30;99.90;;;;;;4926547;29;20832;-62
2021/11/29 10:17:47;;;;;;;20.83;15.23;;;3.40;99.90;;;;;;4924445;29;20489;-62
2021/11/29 10:20:50;;;;;;;22.53;16.13;;;3.40;99.90;;;;;;4921843;29;20836;-62
2021/11/29 10:23:26;;;;;;;23.93;16.00;;;3.50;99.90;;;;;;4925096;29;20481;-62
2021/11/29 10:25:54;;;;;;;23.33;16.37;;;3.50;99.90;;;;;;4915093;29;20543;-61
2021/11/29 10:28:28;;;;;;;24.70;16.73;;;3.50;99.90;;;;;;4926149;29;20566;-62
2021/11/29 10:31:19;;;;;;;22.40;16.13;;;3.50;99.90;;;;;;4915338;29;20472;-62
2021/11/29 10:33:55;;;;;;;23.90;17.53;;;3.60;99.90;;;;;;4917434;29;20511;-62
2021/11/29 10:36:26;;;;;;;22.43;16.87;;;3.60;99.90;;;;;;4914099;29;20599;-62
2021/11/29 10:38:58;;;;;;;24.00;16.53;;;3.70;99.90;;;;;;4919819;29;20907;-62
2021/11/29 10:41:30;;;;;;;22.87;16.53;;;3.70;99.90;;;;;;4923442;29;20557;-63
2021/11/29 10:44:02;;;;;;;23.57;17.03;;;3.70;99.90;;;;;;4923474;29;20498;-62
2021/11/29 10:46:32;;;;;;;20.50;16.07;;;3.70;99.90;;;;;;4918815;29;20480;-63
2021/11/29 10:49:04;;;;;;;22.23;15.63;;;3.70;99.90;;;;;;4917923;29;20481;-62
2021/11/29 10:51:33;;;;;;;23.73;16.50;;;3.80;99.90;;;;;;4914756;29;20484;-63
2021/11/29 10:54:06;;;;;;;23.27;17.57;;;3.80;99.90;;;;;;4915222;29;20475;-62
2021/11/29 10:56:37;;;;;;;21.90;16.07;;;3.90;99.90;;;;;;4921047;29;20566;-62
2021/11/29 10:59:08;;;;;;;22.70;16.43;;;3.90;99.90;;;;;;4921418;29;20479;-63
2021/11/29 11:01:42;;;;;;;19.73;15.17;;;4.00;99.90;;;;;;4916906;29;20821;-63
2021/11/29 11:04:13;;;;;;;20.47;15.27;;;4.00;99.90;;;;;;4917497;29;21000;-63
2021/11/29 11:06:44;;;;;;;20.13;14.63;;;4.10;99.90;;;;;;4930043;29;20486;-62
2021/11/29 11:09:15;;;;;;;20.97;15.77;;;4.10;99.90;;;;;;4922281;29;20502;-62
2021/11/29 11:11:47;;;;;;;20.17;15.53;;;4.10;99.90;;;;;;4928047;29;20481;-60
2021/11/29 11:14:18;;;;;;;18.70;14.73;;;4.10;99.90;;;;;;4924042;29;20492;-62
2021/11/29 11:17:04;;;;;;;19.23;15.37;;;4.10;99.90;;;;;;4916059;29;20503;-63
2021/11/29 11:19:35;;;;;;;19.73;15.27;;;4.20;99.90;;;;;;4913458;29;20939;-61
2021/11/29 11:22:14;;;;;;;19.33;14.90;;;4.20;99.90;;;;;;4926027;29;20847;-62
2021/11/29 11:24:45;;;;;;;20.90;15.60;;;4.20;99.90;;;;;;4918374;29;20559;-62
2021/11/29 11:27:13;;;;;;;17.57;13.60;;;4.20;99.90;;;;;;4929045;29;20479;-63
2021/11/29 11:29:48;;;;;;;18.97;14.13;;;4.20;99.90;;;;;;4918305;29;20563;-62
2021/11/29 11:32:25;;;;;;;16.90;13.47;;;4.30;99.90;;;;;;4924715;29;21174;-62
2021/11/29 11:34:56;;;;;;;18.20;13.83;;;4.30;99.90;;;;;;4929478;29;20472;-62
2021/11/29 11:37:28;;;;;;;15.40;12.10;;;4.30;99.90;;;;;;4920777;29;20495;-61
2021/11/29 11:39:57;;;;;;;16.27;13.37;;;4.30;99.90;;;;;;4918850;29;20480;-63
2021/11/29 11:42:25;;;;;;;16.87;13.30;;;4.40;99.90;;;;;;4919565;29;21200;-63
2021/11/29 11:44:55;;;;;;;17.30;13.40;;;4.30;99.90;;;;;;4912219;29;20599;-62
2021/11/29 11:47:26;;;;;;;15.93;12.73;;;4.30;99.90;;;;;;4924005;29;20547;-63
2021/11/29 11:49:54;;;;;;;15.80;12.43;;;4.30;99.90;;;;;;4906631;29;20540;-63
2021/11/29 11:52:22;;;;;;;16.97;12.97;;;4.40;99.90;;;;;;4916497;29;20828;-62
2021/11/29 11:54:57;;;;;;;15.77;12.00;;;4.40;99.90;;;;;;4918907;29;20956;-62
2021/11/29 11:57:49;;;;;;;16.13;12.63;;;4.40;99.90;;;;;;4919385;29;20475;-63
2021/11/29 12:00:21;;;;;;;14.63;11.63;;;4.50;99.90;;;;;;4912172;29;20558;-62
2021/11/29 12:03:07;;;;;;;14.47;11.17;;;4.50;99.90;;;;;;4917209;29;20543;-63
2021/11/29 12:05:37;;;;;;;13.13;11.17;;;4.50;99.90;;;;;;4913945;29;20478;-61
2021/11/29 12:08:50;;;;;;;12.47;11.17;;;4.40;99.90;;;;;;4917570;29;20480;-62
2021/11/29 12:11:39;;;;;;;11.43;10.20;;;4.50;99.90;;;;;;4891217;29;20562;-62
2021/11/29 12:14:18;;;;;;;11.67;10.03;;;4.40;99.90;;;;;;4912127;29;21000;-62
2021/11/29 12:16:48;;;;;;;12.07;10.17;;;4.40;99.90;;;;;;4915854;29;20481;-63
2021/11/29 12:19:39;;;;;;;12.40;9.97;;;4.40;99.90;;;;;;4914624;29;20543;-62
2021/11/29 12:22:32;;;;;;;12.30;10.30;;;4.40;99.90;;;;;;4904944;29;20513;-62
2021/11/29 12:25:13;;;;;;;11.53;10.07;;;4.40;99.90;;;;;;4915682;29;20484;-62
2021/11/29 12:27:45;;;;;;;12.17;10.40;;;4.40;99.90;;;;;;4912732;29;20843;-62
2021/11/29 12:30:17;;;;;;;11.77;9.97;;;4.40;99.90;;;;;;4909561;29;20508;-62
2021/11/29 12:32:59;;;;;;;11.80;10.27;;;4.50;99.90;;;;;;4914538;29;20480;-62
2021/11/29 12:35:36;;;;;;;11.00;9.80;;;4.50;99.90;;;;;;4911786;29;21097;-62
2021/11/29 12:38:22;;;;;;;13.70;10.63;;;4.50;99.90;;;;;;4912469;29;20513;-61
2021/11/29 12:40:55;;;;;;;13.07;9.83;;;4.60;99.90;;;;;;4918480;29;20488;-62
2021/11/29 12:43:36;;;;;;;13.30;10.53;;;4.70;99.90;;;;;;4917004;29;20551;-62
2021/11/29 12:46:21;;;;;;;12.27;10.47;;;4.70;99.90;;;;;;4912215;29;20542;-62
2021/11/29 12:48:50;;;;;;;11.20;9.40;;;4.70;99.90;;;;;;4912571;29;20932;-62
2021/11/29 12:51:48;;;;;;;10.63;9.43;;;4.70;99.90;;;;;;4915207;29;20487;-62
2021/11/29 12:54:41;;;;;;;11.40;9.80;;;4.70;99.90;;;;;;4913910;29;20496;-63
2021/11/29 12:57:29;;;;;;;10.23;9.13;;;4.70;99.90;;;;;;4913407;29;20491;-63